HGH weather

Hangzhou Xiaoshan International Airport
Hangzhou, Zhejiang Province, China

Public forecast

Using degrees Celsius for public forecast. Weather courtesy of forecast.io.

Current aviation weather report (METAR) for Hangzhou Xiaoshan International Airport

Retrieved 2019/12/13 07:30 UTC (0 seconds ago):

ZSHC 130730Z 00000MPS 7000 NSC 19/04 Q1023 NOSIG

Aviation forecast (TAF) for Hangzhou Xiaoshan International Airport

Retrieved 2019/12/13 06:03 UTC (1 hour ago):

TAF ZSHC 130301Z 1306/1406 09003MPS 3000 HZ NSC TX18/1306Z TN07/1321Z